createdAt,value
2022-08-20T00:02:16.693Z,73.00
2022-08-20T00:04:45.455Z,72.90
2022-08-20T00:07:14.408Z,73.00
2022-08-20T00:09:44.353Z,73.10
2022-08-20T00:12:17.215Z,73.20
2022-08-20T00:14:46.867Z,73.10
2022-08-20T00:17:16.572Z,73.00
2022-08-20T00:19:44.822Z,73.10
2022-08-20T00:22:13.699Z,73.30
2022-08-20T00:24:42.069Z,73.70
2022-08-20T00:27:10.465Z,72.80
2022-08-20T00:29:38.916Z,72.90
2022-08-20T00:32:08.758Z,73.50
2022-08-20T00:34:37.136Z,72.80
2022-08-20T00:37:05.720Z,72.90
2022-08-20T00:39:34.109Z,73.10
2022-08-20T00:42:03.450Z,72.90
2022-08-20T00:44:31.884Z,72.80
2022-08-20T00:47:00.445Z,72.70
2022-08-20T00:49:32.919Z,72.80
2022-08-20T00:52:06.482Z,72.80
2022-08-20T00:54:40.078Z,72.70
2022-08-20T00:57:12.841Z,72.90
2022-08-20T00:59:43.367Z,73.00
2022-08-20T01:02:16.268Z,73.20
2022-08-20T01:04:48.946Z,72.60
2022-08-20T01:07:20.412Z,72.60
2022-08-20T01:09:58.909Z,72.60
2022-08-20T01:12:30.054Z,72.70
2022-08-20T01:15:02.959Z,72.50
2022-08-20T01:17:36.403Z,72.60
2022-08-20T01:20:11.650Z,72.40
2022-08-20T01:23:04.571Z,72.40
2022-08-20T01:25:44.733Z,72.30
2022-08-20T01:28:15.134Z,73.20
2022-08-20T01:30:44.129Z,72.40
2022-08-20T01:33:13.790Z,72.40
2022-08-20T01:35:44.669Z,72.40
2022-08-20T01:38:14.254Z,72.40
2022-08-20T01:41:28.239Z,72.60
2022-08-20T01:43:58.816Z,72.50
2022-08-20T01:46:32.904Z,72.50
2022-08-20T01:49:13.599Z,72.40
2022-08-20T01:51:43.793Z,72.60
2022-08-20T01:54:13.686Z,72.80
2022-08-20T01:56:59.432Z,73.20
2022-08-20T01:59:27.837Z,72.60
2022-08-20T02:01:58.523Z,72.60
2022-08-20T02:04:27.688Z,72.70
2022-08-20T02:06:59.405Z,72.50
2022-08-20T02:09:30.216Z,72.40
2022-08-20T02:12:01.033Z,72.30
2022-08-20T02:14:30.769Z,72.50
2022-08-20T02:16:59.895Z,72.40
2022-08-20T02:19:35.480Z,72.10
2022-08-20T02:22:10.529Z,72.30
2022-08-20T02:24:38.754Z,72.40
2022-08-20T02:27:08.382Z,72.30
2022-08-20T02:29:36.762Z,72.20
2022-08-20T02:32:24.375Z,72.20
2022-08-20T02:34:54.875Z,72.10
2022-08-20T02:37:23.340Z,72.30
2022-08-20T02:39:51.624Z,72.20
2022-08-20T02:42:21.284Z,72.30
2022-08-20T02:44:49.513Z,72.20
2022-08-20T02:47:18.181Z,72.20
2022-08-20T02:49:46.569Z,72.40
2022-08-20T02:52:14.801Z,72.50
2022-08-20T02:54:43.109Z,72.40
2022-08-20T02:57:14.187Z,72.20
2022-08-20T02:59:45.210Z,72.50
2022-08-20T03:02:14.028Z,72.80
2022-08-20T03:04:42.829Z,72.60
2022-08-20T03:07:13.014Z,72.50
2022-08-20T03:09:42.321Z,72.70
2022-08-20T03:12:11.041Z,72.60
2022-08-20T03:14:39.467Z,72.50
2022-08-20T03:17:09.548Z,72.40
2022-08-20T03:19:38.198Z,72.40
2022-08-20T03:22:07.100Z,72.40
2022-08-20T03:24:35.394Z,73.20
2022-08-20T03:27:03.662Z,72.50
2022-08-20T03:29:32.134Z,72.50
2022-08-20T03:32:03.843Z,72.60
2022-08-20T03:34:35.973Z,72.50
2022-08-20T03:37:04.291Z,72.60
2022-08-20T03:39:32.822Z,73.20
2022-08-20T03:42:01.165Z,72.70
2022-08-20T03:44:29.379Z,72.80
2022-08-20T03:46:58.011Z,72.80
2022-08-20T03:49:26.721Z,72.70
2022-08-20T03:51:58.040Z,72.70
2022-08-20T03:54:31.978Z,72.70
2022-08-20T03:57:01.428Z,72.50
2022-08-20T03:59:29.908Z,72.50
2022-08-20T04:01:58.179Z,72.50
2022-08-20T04:04:26.551Z,72.40
2022-08-20T04:06:56.494Z,72.50
2022-08-20T04:09:24.726Z,72.50
2022-08-20T04:12:00.202Z,72.70
2022-08-20T04:14:29.186Z,72.50
2022-08-20T04:16:57.805Z,72.50
2022-08-20T04:19:29.179Z,72.20
2022-08-20T04:22:01.070Z,72.50
2022-08-20T04:24:32.209Z,72.60
2022-08-20T04:27:02.778Z,72.70
2022-08-20T04:29:34.882Z,72.80
2022-08-20T04:32:06.133Z,73.00
2022-08-20T04:34:36.392Z,73.20
2022-08-20T04:37:17.248Z,73.10
2022-08-20T04:40:06.104Z,73.40
2022-08-20T04:42:36.722Z,73.50
2022-08-20T04:45:07.701Z,73.40
2022-08-20T04:47:36.496Z,73.70
2022-08-20T04:50:05.940Z,73.70
2022-08-20T04:52:36.006Z,73.70
2022-08-20T04:55:05.691Z,73.80
2022-08-20T04:57:36.665Z,73.70
2022-08-20T05:00:10.041Z,73.50
2022-08-20T05:02:38.953Z,73.40
2022-08-20T05:05:08.429Z,73.30
2022-08-20T05:07:42.944Z,73.30
2022-08-20T05:10:14.840Z,73.40
2022-08-20T05:12:56.811Z,73.60
2022-08-20T05:15:26.594Z,73.20
2022-08-20T05:18:00.595Z,73.00
2022-08-20T05:20:32.119Z,73.00
2022-08-20T05:23:03.513Z,73.00
2022-08-20T05:25:32.678Z,73.00
2022-08-20T05:28:05.572Z,73.10
2022-08-20T05:30:34.484Z,72.90
2022-08-20T05:33:06.195Z,72.90
2022-08-20T05:35:38.599Z,72.90
2022-08-20T05:38:13.666Z,72.90
2022-08-20T05:40:43.727Z,73.00
2022-08-20T05:43:12.393Z,72.90
2022-08-20T05:45:43.843Z,72.80
2022-08-20T05:48:16.533Z,72.90
2022-08-20T05:50:49.328Z,73.10
2022-08-20T05:53:20.193Z,73.00
2022-08-20T05:55:49.499Z,72.90
2022-08-20T05:58:22.404Z,73.10
2022-08-20T06:00:52.223Z,73.00
2022-08-20T06:03:38.606Z,73.00
2022-08-20T06:06:18.405Z,73.10
2022-08-20T06:08:58.224Z,72.90
2022-08-20T06:11:26.750Z,72.90
2022-08-20T06:13:55.025Z,72.80
2022-08-20T06:16:23.301Z,72.90
2022-08-20T06:18:58.123Z,73.00
2022-08-20T06:21:27.347Z,73.10
2022-08-20T06:23:59.146Z,72.80
2022-08-20T06:26:31.584Z,73.00
2022-08-20T06:29:00.317Z,72.90
2022-08-20T06:31:29.105Z,73.20
2022-08-20T06:33:58.132Z,73.30
2022-08-20T06:36:27.447Z,73.40
2022-08-20T06:38:58.526Z,72.60
2022-08-20T06:41:36.152Z,73.10
2022-08-20T06:44:06.659Z,73.40
2022-08-20T06:46:36.136Z,73.10
2022-08-20T06:49:05.357Z,73.50
2022-08-20T06:51:34.174Z,73.40
2022-08-20T06:54:06.789Z,73.60
2022-08-20T06:56:35.569Z,75.40
2022-08-20T06:59:03.845Z,76.20
2022-08-20T07:01:32.975Z,75.50
2022-08-20T07:04:01.347Z,75.30
2022-08-20T07:06:29.839Z,74.70
2022-08-20T07:08:58.376Z,74.00
2022-08-20T07:11:28.962Z,74.10
2022-08-20T07:13:58.703Z,74.10
2022-08-20T07:16:27.829Z,73.80
2022-08-20T07:18:56.273Z,73.80
2022-08-20T07:21:24.642Z,74.00
2022-08-20T07:23:53.251Z,74.30
2022-08-20T07:26:21.909Z,74.20
2022-08-20T07:28:51.573Z,74.20
2022-08-20T07:31:37.464Z,74.20
2022-08-20T07:34:06.127Z,73.80
2022-08-20T07:36:35.445Z,73.80
2022-08-20T07:39:05.821Z,73.80
2022-08-20T07:41:35.206Z,73.80
2022-08-20T07:44:05.797Z,73.80
2022-08-20T07:46:34.342Z,74.10
2022-08-20T07:49:09.820Z,74.00
2022-08-20T07:51:38.501Z,73.80
2022-08-20T07:54:07.061Z,73.50
2022-08-20T07:56:35.457Z,73.50
2022-08-20T07:59:06.268Z,73.40
2022-08-20T08:01:35.181Z,73.30
2022-08-20T08:04:04.509Z,73.40
2022-08-20T08:06:33.062Z,73.20
2022-08-20T08:09:06.043Z,73.30
2022-08-20T08:11:38.590Z,73.40
2022-08-20T08:14:09.792Z,73.30
2022-08-20T08:16:39.358Z,73.20
2022-08-20T08:19:11.921Z,73.00
2022-08-20T08:21:41.713Z,73.20
2022-08-20T08:24:12.734Z,73.00
2022-08-20T08:26:43.180Z,72.80
2022-08-20T08:29:13.565Z,72.50
2022-08-20T08:31:42.264Z,72.70
2022-08-20T08:34:10.673Z,72.20
2022-08-20T08:36:39.295Z,72.70
2022-08-20T08:39:07.856Z,72.50
2022-08-20T08:41:40.805Z,72.60
2022-08-20T08:44:13.151Z,73.00
2022-08-20T08:46:44.448Z,72.50
2022-08-20T08:49:15.877Z,72.40
2022-08-20T08:51:50.167Z,72.70
2022-08-20T08:54:22.904Z,72.70
2022-08-20T08:56:52.472Z,73.00
2022-08-20T08:59:23.771Z,73.00
2022-08-20T09:01:57.601Z,73.10
2022-08-20T09:04:32.195Z,73.10
2022-08-20T09:07:04.412Z,73.30
2022-08-20T09:09:36.896Z,73.10
2022-08-20T09:12:09.717Z,73.10
2022-08-20T09:14:39.904Z,72.20
2022-08-20T09:17:09.260Z,72.50
2022-08-20T09:19:37.569Z,72.70
2022-08-20T09:22:10.717Z,72.60
2022-08-20T09:24:39.467Z,72.60
2022-08-20T09:27:11.423Z,72.60
2022-08-20T09:29:41.679Z,72.30
2022-08-20T09:32:13.876Z,72.20
2022-08-20T09:34:51.808Z,72.10
2022-08-20T09:37:20.904Z,71.90
2022-08-20T09:39:49.671Z,71.70
2022-08-20T09:42:21.114Z,71.60
2022-08-20T09:44:51.043Z,71.40
2022-08-20T09:47:19.541Z,71.50
2022-08-20T09:49:48.405Z,71.30
2022-08-20T09:52:24.202Z,70.50
2022-08-20T09:54:54.855Z,70.90
2022-08-20T09:57:23.842Z,70.50
2022-08-20T09:59:57.961Z,70.60
2022-08-20T10:02:26.648Z,70.50
2022-08-20T10:04:55.423Z,70.20
2022-08-20T10:07:25.886Z,70.00
2022-08-20T10:09:54.407Z,69.70
2022-08-20T10:12:22.983Z,69.70
2022-08-20T10:14:51.294Z,69.50
2022-08-20T10:17:20.904Z,69.80
2022-08-20T10:19:49.769Z,69.70
2022-08-20T10:22:17.959Z,69.40
2022-08-20T10:24:46.214Z,69.50
2022-08-20T10:27:14.534Z,68.90
2022-08-20T10:29:46.697Z,68.10
2022-08-20T10:32:17.242Z,67.90
2022-08-20T10:34:47.772Z,67.80
2022-08-20T10:37:19.309Z,68.30
2022-08-20T10:39:49.250Z,68.30
2022-08-20T10:42:17.921Z,68.40
2022-08-20T10:44:47.066Z,68.40
2022-08-20T10:47:21.285Z,68.40
2022-08-20T10:49:53.848Z,68.50
2022-08-20T10:52:23.648Z,68.20
2022-08-20T10:54:53.276Z,68.30
2022-08-20T10:57:24.522Z,68.00
2022-08-20T10:59:55.777Z,68.20
2022-08-20T11:02:24.893Z,67.90
2022-08-20T11:04:55.176Z,67.60
2022-08-20T11:07:50.678Z,67.60
2022-08-20T11:10:20.063Z,67.30
2022-08-20T11:12:48.773Z,66.80
2022-08-20T11:15:17.258Z,65.50
2022-08-20T11:17:46.670Z,66.00
2022-08-20T11:20:19.719Z,64.80
2022-08-20T11:22:48.675Z,64.70
2022-08-20T11:25:17.171Z,63.60
2022-08-20T11:27:49.152Z,64.30
2022-08-20T11:30:22.357Z,62.90
2022-08-20T11:32:50.668Z,62.80
2022-08-20T11:38:10.138Z,63.40
2022-08-20T11:40:38.701Z,63.30
2022-08-20T11:43:15.997Z,63.10
2022-08-20T11:45:47.265Z,62.90
2022-08-20T11:48:15.601Z,62.00
2022-08-20T11:50:45.349Z,63.80
2022-08-20T11:53:14.857Z,63.10
2022-08-20T11:55:43.921Z,63.10
2022-08-20T11:58:12.406Z,63.10
2022-08-20T12:00:40.898Z,63.20
2022-08-20T12:03:11.813Z,63.20
2022-08-20T12:05:41.683Z,63.10
2022-08-20T12:08:27.704Z,63.10
2022-08-20T12:10:59.245Z,63.30
2022-08-20T12:13:30.564Z,64.70
2022-08-20T12:16:00.186Z,64.60
2022-08-20T12:18:29.011Z,64.30
2022-08-20T12:20:57.355Z,64.60
2022-08-20T12:23:27.158Z,64.10
2022-08-20T12:25:55.491Z,64.30
2022-08-20T12:28:27.524Z,64.40
2022-08-20T12:30:55.836Z,64.70
2022-08-20T12:33:24.176Z,64.70
2022-08-20T12:35:53.170Z,65.50
2022-08-20T12:38:21.606Z,65.20
2022-08-20T12:40:51.310Z,65.10
2022-08-20T12:43:24.646Z,65.00
2022-08-20T12:45:53.465Z,64.80
2022-08-20T12:48:21.889Z,65.00
2022-08-20T12:50:52.713Z,65.10
2022-08-20T12:53:21.242Z,65.20
2022-08-20T12:55:51.048Z,65.40
2022-08-20T12:58:19.665Z,65.40
2022-08-20T13:00:50.897Z,65.50
2022-08-20T13:03:22.077Z,65.20
2022-08-20T13:05:51.841Z,65.20
2022-08-20T13:08:23.511Z,65.20
2022-08-20T13:10:53.342Z,65.30
2022-08-20T13:13:21.606Z,65.40
2022-08-20T13:15:51.494Z,66.00
2022-08-20T13:18:20.192Z,66.40
2022-08-20T13:20:48.698Z,66.60
2022-08-20T13:23:17.533Z,66.50
2022-08-20T13:25:45.897Z,66.40
2022-08-20T13:28:15.639Z,66.50
2022-08-20T13:30:43.869Z,66.60
2022-08-20T13:33:12.209Z,66.50
2022-08-20T13:35:40.469Z,66.40
2022-08-20T13:38:08.828Z,66.50
2022-08-20T13:40:37.405Z,66.60
2022-08-20T13:43:07.335Z,66.70
2022-08-20T13:45:38.605Z,66.80
2022-08-20T13:48:14.706Z,67.20
2022-08-20T13:50:47.180Z,67.30
2022-08-20T13:53:17.206Z,67.30
2022-08-20T13:55:47.493Z,67.20
2022-08-20T13:58:17.363Z,67.50
2022-08-20T14:00:47.949Z,67.40
2022-08-20T14:03:19.791Z,67.80
2022-08-20T14:05:48.493Z,68.40
2022-08-20T14:08:19.543Z,68.90
2022-08-20T14:10:51.572Z,68.60
2022-08-20T14:13:23.394Z,68.40
2022-08-20T14:15:53.543Z,68.20
2022-08-20T14:18:22.195Z,68.00
2022-08-20T14:20:50.515Z,68.00
2022-08-20T14:23:18.951Z,67.80
2022-08-20T14:25:50.137Z,67.70
2022-08-20T14:28:21.288Z,67.60
2022-08-20T14:30:52.946Z,67.60
2022-08-20T14:33:24.933Z,67.40
2022-08-20T14:35:53.963Z,67.40
2022-08-20T14:38:22.922Z,67.40
2022-08-20T14:40:51.457Z,67.30
2022-08-20T14:43:20.169Z,67.30
2022-08-20T14:45:48.474Z,67.30
2022-08-20T14:48:16.756Z,67.30
2022-08-20T14:50:46.476Z,67.30
2022-08-20T14:53:14.692Z,67.30
2022-08-20T14:55:42.976Z,67.30
2022-08-20T14:58:13.611Z,67.20
2022-08-20T15:00:44.093Z,67.30
2022-08-20T15:03:13.370Z,68.20
2022-08-20T15:05:41.798Z,67.50
2022-08-20T15:08:11.418Z,67.50
2022-08-20T15:10:40.819Z,67.80
2022-08-20T15:13:09.511Z,68.20
2022-08-20T15:15:39.401Z,68.20
2022-08-20T15:18:08.674Z,73.10
2022-08-20T15:20:39.059Z,70.70
2022-08-20T15:23:08.089Z,70.10
2022-08-20T15:25:38.660Z,69.20
2022-08-20T15:28:09.544Z,69.50
2022-08-20T15:30:39.071Z,68.60
2022-08-20T15:33:08.265Z,68.90
2022-08-20T15:35:37.102Z,68.40
2022-08-20T15:38:07.863Z,68.10
2022-08-20T15:40:39.348Z,68.00
2022-08-20T15:43:08.718Z,67.70
2022-08-20T15:45:37.506Z,68.00
2022-08-20T15:48:15.042Z,68.00
2022-08-20T15:51:03.921Z,67.80
2022-08-20T15:53:38.640Z,68.70
2022-08-20T15:56:23.175Z,67.80
2022-08-20T15:59:06.801Z,67.70
2022-08-20T16:01:45.851Z,67.70
2022-08-20T16:04:57.890Z,67.70
2022-08-20T16:07:34.021Z,67.70
2022-08-20T16:10:15.136Z,67.80
2022-08-20T16:12:51.249Z,67.90
2022-08-20T16:15:24.292Z,67.90
2022-08-20T16:18:06.671Z,67.80
2022-08-20T16:20:41.597Z,67.80
2022-08-20T16:23:12.574Z,67.90
2022-08-20T16:25:59.208Z,67.90
2022-08-20T16:28:37.069Z,68.10
2022-08-20T16:31:11.987Z,68.20
2022-08-20T16:33:57.681Z,68.30
2022-08-20T16:36:38.138Z,69.00
2022-08-20T16:39:11.828Z,68.60
2022-08-20T16:41:42.965Z,68.50
2022-08-20T16:44:22.341Z,68.50
2022-08-20T16:46:55.879Z,68.50
2022-08-20T16:49:26.822Z,68.50
2022-08-20T16:51:55.662Z,68.30
2022-08-20T16:54:29.690Z,68.30
2022-08-20T16:57:04.365Z,68.40
2022-08-20T16:59:35.563Z,68.40
2022-08-20T17:02:10.414Z,68.60
2022-08-20T17:04:50.525Z,68.60
2022-08-20T17:07:33.379Z,68.60
2022-08-20T17:10:15.529Z,68.80
2022-08-20T17:12:43.884Z,68.80
2022-08-20T17:15:25.592Z,68.80
2022-08-20T17:17:56.014Z,68.60
2022-08-20T17:20:29.044Z,68.40
2022-08-20T17:23:14.742Z,68.30
2022-08-20T17:25:43.108Z,68.30
2022-08-20T17:28:16.856Z,68.30
2022-08-20T17:30:48.389Z,69.20
2022-08-20T17:33:30.458Z,68.90
2022-08-20T17:36:02.618Z,69.20
2022-08-20T17:38:41.652Z,68.60
2022-08-20T17:41:17.381Z,68.70
2022-08-20T17:43:47.140Z,69.10
2022-08-20T17:46:18.763Z,69.10
2022-08-20T17:48:49.579Z,69.00
2022-08-20T17:51:21.762Z,69.10
2022-08-20T17:53:54.353Z,69.20
2022-08-20T17:56:27.173Z,69.80
2022-08-20T17:59:03.487Z,69.20
2022-08-20T18:01:36.204Z,68.40
2022-08-20T18:04:05.122Z,68.40
2022-08-20T18:06:44.567Z,68.90
2022-08-20T18:09:20.469Z,69.20
2022-08-20T18:11:55.537Z,69.20
2022-08-20T18:14:40.510Z,68.60
2022-08-20T18:17:50.330Z,68.20
2022-08-20T18:20:49.672Z,67.90
2022-08-20T18:23:22.614Z,67.20
2022-08-20T18:25:55.779Z,67.30
2022-08-20T18:28:36.391Z,66.40
2022-08-20T18:31:10.307Z,65.20
2022-08-20T18:33:43.505Z,64.70
2022-08-20T18:36:24.893Z,65.50
2022-08-20T18:39:03.445Z,65.10
2022-08-20T18:41:35.507Z,65.70
2022-08-20T18:44:08.981Z,65.50
2022-08-20T18:46:38.674Z,66.10
2022-08-20T18:49:09.936Z,65.60
2022-08-20T18:51:43.569Z,65.40
2022-08-20T18:54:25.024Z,65.40
2022-08-20T18:57:05.875Z,65.80
2022-08-20T18:59:41.657Z,65.40
2022-08-20T19:02:23.741Z,64.80
2022-08-20T19:04:59.812Z,65.20
2022-08-20T19:07:43.155Z,65.20
2022-08-20T19:10:43.743Z,65.00
2022-08-20T19:16:02.201Z,68.30
2022-08-20T19:18:38.739Z,66.70
2022-08-20T19:21:15.642Z,66.70
2022-08-20T19:23:54.368Z,70.80
2022-08-20T19:26:26.187Z,79.10
2022-08-20T19:28:59.020Z,80.60
2022-08-20T19:31:30.534Z,82.60
2022-08-20T19:34:19.900Z,83.10
2022-08-20T19:36:58.971Z,81.60
2022-08-20T19:39:32.437Z,78.80
2022-08-20T19:42:15.062Z,77.80
2022-08-20T19:44:51.469Z,75.10
2022-08-20T19:47:35.057Z,73.40
2022-08-20T19:50:20.752Z,73.70
2022-08-20T19:52:58.803Z,79.70
2022-08-20T19:55:32.969Z,74.50
2022-08-20T19:58:06.737Z,71.80
2022-08-20T20:00:41.963Z,69.50
2022-08-20T20:03:11.572Z,68.50
2022-08-20T20:05:51.262Z,66.80
2022-08-20T20:08:22.534Z,67.90
2022-08-20T20:10:57.942Z,68.00
2022-08-20T20:13:36.012Z,67.10
2022-08-20T20:16:08.679Z,67.40
2022-08-20T20:18:41.460Z,67.90
2022-08-20T20:21:15.560Z,68.90
2022-08-20T20:23:55.659Z,68.10
2022-08-20T20:26:25.143Z,68.80
2022-08-20T20:29:02.221Z,67.30
2022-08-20T20:31:34.464Z,67.40
2022-08-20T20:34:13.220Z,67.50
2022-08-20T20:36:43.895Z,67.60
2022-08-20T20:39:29.932Z,67.50
2022-08-20T20:42:09.256Z,67.10
2022-08-20T20:44:40.405Z,67.60
2022-08-20T20:47:20.207Z,68.40
2022-08-20T20:49:53.356Z,68.00
2022-08-20T20:52:25.458Z,68.10
2022-08-20T20:55:10.164Z,67.70
2022-08-20T20:57:39.553Z,68.50
2022-08-20T21:00:13.272Z,68.20
2022-08-20T21:02:43.434Z,68.00
2022-08-20T21:05:14.573Z,67.70
2022-08-20T21:07:50.599Z,66.70
2022-08-20T21:10:24.245Z,67.40
2022-08-20T21:12:53.516Z,67.90
2022-08-20T21:15:24.349Z,67.30
2022-08-20T21:17:53.781Z,66.70
2022-08-20T21:20:23.200Z,66.80
2022-08-20T21:22:51.684Z,66.30
2022-08-20T21:25:21.757Z,66.20
2022-08-20T21:27:52.260Z,66.00
2022-08-20T21:30:22.753Z,65.90
2022-08-20T21:32:51.615Z,65.80
2022-08-20T21:35:20.486Z,65.90
2022-08-20T21:37:49.073Z,66.00
2022-08-20T21:40:21.439Z,66.30
2022-08-20T21:42:52.274Z,66.70
2022-08-20T21:45:22.458Z,66.80
2022-08-20T21:47:50.908Z,66.70
2022-08-20T21:50:21.391Z,66.70
2022-08-20T21:53:11.299Z,66.50
2022-08-20T21:55:40.396Z,66.70
2022-08-20T21:58:10.531Z,66.40
2022-08-20T22:00:55.005Z,66.60
2022-08-20T22:03:26.605Z,66.70
2022-08-20T22:05:55.978Z,66.80
2022-08-20T22:08:28.126Z,67.00
2022-08-20T22:10:58.732Z,67.20
2022-08-20T22:13:32.827Z,67.20
2022-08-20T22:16:02.730Z,67.20
2022-08-20T22:18:31.284Z,67.20
2022-08-20T22:21:00.320Z,67.50
2022-08-20T22:23:29.879Z,67.40
2022-08-20T22:25:58.264Z,67.40
2022-08-20T22:28:27.971Z,67.50
2022-08-20T22:30:56.264Z,67.50
2022-08-20T22:33:26.024Z,67.50
2022-08-20T22:35:59.498Z,68.00
2022-08-20T22:38:29.409Z,68.10
2022-08-20T22:40:58.296Z,68.00
2022-08-20T22:43:29.908Z,67.80
2022-08-20T22:46:02.147Z,68.00
2022-08-20T22:48:31.207Z,68.20
2022-08-20T22:51:00.255Z,68.20
2022-08-20T22:53:29.589Z,68.10
2022-08-20T22:55:58.961Z,68.40
2022-08-20T22:58:30.457Z,68.00
2022-08-20T23:01:02.279Z,67.80
2022-08-20T23:03:40.049Z,67.70
2022-08-20T23:06:10.919Z,67.90
2022-08-20T23:08:40.457Z,67.90
2022-08-20T23:11:09.359Z,67.60
2022-08-20T23:13:39.632Z,67.70
2022-08-20T23:16:09.104Z,67.60
2022-08-20T23:18:38.082Z,67.50
2022-08-20T23:21:07.047Z,67.50
2022-08-20T23:23:35.448Z,67.70
2022-08-20T23:26:04.185Z,67.60
2022-08-20T23:28:32.535Z,67.60
2022-08-20T23:31:02.200Z,67.20
2022-08-20T23:33:31.539Z,67.20
2022-08-20T23:36:03.905Z,67.40
2022-08-20T23:38:32.243Z,67.10
2022-08-20T23:41:00.529Z,67.30
2022-08-20T23:43:29.056Z,67.10
2022-08-20T23:46:03.502Z,66.80
2022-08-20T23:48:31.933Z,66.50
2022-08-20T23:51:00.228Z,66.50
2022-08-20T23:53:28.674Z,66.00
2022-08-20T23:55:57.276Z,65.70
2022-08-20T23:58:25.605Z,65.90
